createdAt,value
2018-11-25T00:00:17.763Z,81.40
2018-11-25T00:01:17.671Z,82.90
2018-11-25T00:02:17.582Z,81.90
2018-11-25T00:03:17.494Z,78.70
2018-11-25T00:04:17.419Z,79.10
2018-11-25T00:05:17.389Z,71.80
2018-11-25T00:06:17.245Z,74.90
2018-11-25T00:07:17.159Z,71.80
2018-11-25T00:08:17.071Z,72.70
2018-11-25T00:09:16.983Z,71.00
2018-11-25T00:10:16.910Z,78.00
2018-11-25T00:11:16.821Z,77.40
2018-11-25T00:12:16.735Z,77.70
2018-11-25T00:13:16.648Z,76.70
2018-11-25T00:14:16.559Z,81.50
2018-11-25T00:15:16.483Z,80.40
2018-11-25T00:16:16.395Z,73.70
2018-11-25T00:17:16.313Z,78.70
2018-11-25T00:18:16.221Z,74.40
2018-11-25T00:19:16.134Z,73.00
2018-11-25T00:20:16.046Z,74.10
2018-11-25T00:21:15.960Z,72.00
2018-11-25T00:22:15.885Z,73.50
2018-11-25T00:23:15.797Z,74.80
2018-11-25T00:24:15.720Z,74.10
2018-11-25T00:25:15.623Z,76.20
2018-11-25T00:26:15.785Z,76.70
2018-11-25T00:27:15.448Z,69.60
2018-11-25T00:28:15.386Z,67.70
2018-11-25T00:29:15.285Z,77.60
2018-11-25T00:30:15.197Z,69.60
2018-11-25T00:31:15.114Z,72.60
2018-11-25T00:32:15.023Z,71.60
2018-11-25T00:33:14.936Z,67.80
2018-11-25T00:34:14.862Z,70.30
2018-11-25T00:35:14.853Z,75.00
2018-11-25T00:36:14.686Z,71.50
2018-11-25T00:37:14.602Z,70.20
2018-11-25T00:38:14.515Z,78.90
2018-11-25T00:39:14.433Z,76.20
2018-11-25T00:40:14.350Z,71.90
2018-11-25T00:41:14.263Z,76.50
2018-11-25T00:42:14.174Z,76.30
2018-11-25T00:43:14.088Z,82.30
2018-11-25T00:44:14.011Z,78.80
2018-11-25T00:45:13.924Z,82.30
2018-11-25T00:46:13.838Z,84.70
2018-11-25T00:47:13.749Z,85.80
2018-11-25T00:48:13.666Z,82.20
2018-11-25T00:49:13.577Z,83.40
2018-11-25T00:50:13.496Z,86.80
2018-11-25T00:51:13.414Z,84.80
2018-11-25T00:52:13.325Z,80.30
2018-11-25T00:53:13.238Z,85.50
2018-11-25T00:54:13.163Z,92.70
2018-11-25T00:55:13.065Z,90.20
2018-11-25T00:56:12.976Z,88.00
2018-11-25T00:57:12.900Z,90.20
2018-11-25T00:58:12.815Z,90.00
2018-11-25T00:59:12.726Z,87.20
2018-11-25T01:00:12.644Z,88.80
2018-11-25T01:01:12.553Z,92.90
2018-11-25T01:02:12.466Z,92.90
2018-11-25T01:03:12.390Z,89.70
2018-11-25T01:04:12.302Z,92.30
2018-11-25T01:05:12.215Z,89.70
2018-11-25T01:06:12.127Z,93.80
2018-11-25T01:07:12.043Z,96.70
2018-11-25T01:08:11.952Z,93.70
2018-11-25T01:09:11.865Z,93.80
2018-11-25T01:10:11.793Z,97.80
2018-11-25T01:11:11.702Z,90.80
2018-11-25T01:12:11.617Z,96.40
2018-11-25T01:13:11.527Z,92.20
2018-11-25T01:14:11.441Z,93.20
2018-11-25T01:15:11.358Z,94.20
2018-11-25T01:16:11.270Z,89.00
2018-11-25T01:17:11.195Z,96.60
2018-11-25T01:18:11.104Z,86.70
2018-11-25T01:19:11.017Z,91.70
2018-11-25T01:20:10.928Z,96.20
2018-11-25T01:21:11.092Z,91.20
2018-11-25T01:22:10.755Z,94.20
2018-11-25T01:23:10.679Z,93.40
2018-11-25T01:24:10.593Z,91.60
2018-11-25T01:25:10.504Z,98.60
2018-11-25T01:26:10.419Z,97.10
2018-11-25T01:27:10.329Z,94.20
2018-11-25T01:28:10.243Z,96.70
2018-11-25T01:29:10.168Z,96.20
2018-11-25T01:30:10.081Z,92.60
2018-11-25T01:31:09.996Z,97.00
2018-11-25T01:32:09.905Z,100.60
2018-11-25T01:33:09.818Z,98.00
2018-11-25T01:34:09.729Z,89.70
2018-11-25T01:35:09.643Z,93.20
2018-11-25T01:36:09.556Z,94.70
2018-11-25T01:37:09.494Z,92.00
2018-11-25T01:38:09.394Z,90.30
2018-11-25T01:39:09.305Z,90.10
2018-11-25T01:40:09.223Z,88.40
2018-11-25T01:41:09.131Z,87.20
2018-11-25T01:42:09.043Z,85.10
2018-11-25T01:43:08.970Z,81.90
2018-11-25T01:44:08.881Z,78.20
2018-11-25T01:45:08.795Z,87.30
2018-11-25T01:46:08.956Z,80.10
2018-11-25T01:47:08.621Z,84.10
2018-11-25T01:48:08.532Z,83.50
2018-11-25T01:49:08.447Z,84.50
2018-11-25T01:50:08.374Z,83.70
2018-11-25T01:51:08.282Z,84.30
2018-11-25T01:52:08.199Z,88.20
2018-11-25T01:53:08.107Z,85.80
2018-11-25T01:54:08.021Z,89.80
2018-11-25T01:55:07.936Z,87.90
2018-11-25T01:56:07.845Z,93.60
2018-11-25T01:57:07.776Z,86.60
2018-11-25T01:58:07.685Z,93.00
2018-11-25T01:59:07.596Z,84.80
2018-11-25T02:00:07.508Z,85.00
2018-11-25T02:01:07.422Z,90.40
2018-11-25T02:02:07.335Z,86.10
2018-11-25T02:03:07.258Z,90.80
2018-11-25T02:04:07.178Z,88.30
2018-11-25T02:05:07.083Z,88.50
2018-11-25T02:06:06.998Z,91.90
2018-11-25T02:07:06.908Z,86.30
2018-11-25T02:08:06.823Z,85.20
2018-11-25T02:09:06.735Z,82.30
2018-11-25T02:10:06.672Z,89.90
2018-11-25T02:11:06.573Z,83.20
2018-11-25T02:12:06.487Z,84.00
2018-11-25T02:13:06.406Z,91.90
2018-11-25T02:14:06.314Z,80.70
2018-11-25T02:15:06.223Z,85.80
2018-11-25T02:16:06.136Z,82.40
2018-11-25T02:17:06.062Z,86.20
2018-11-25T02:18:05.973Z,87.50
2018-11-25T02:19:05.887Z,80.40
2018-11-25T02:20:05.799Z,84.00
2018-11-25T02:21:05.710Z,81.80
2018-11-25T02:22:05.624Z,78.20
2018-11-25T02:23:05.550Z,81.10
2018-11-25T02:24:05.463Z,79.20
2018-11-25T02:25:05.375Z,80.00
2018-11-25T02:26:05.286Z,82.90
2018-11-25T02:27:05.201Z,78.40
2018-11-25T02:28:05.112Z,82.90
2018-11-25T02:29:05.036Z,87.70
2018-11-25T02:30:04.951Z,86.40
2018-11-25T02:31:04.878Z,82.70
2018-11-25T02:32:04.775Z,81.40
2018-11-25T02:33:04.687Z,89.00
2018-11-25T02:34:04.608Z,85.10
2018-11-25T02:35:04.526Z,87.80
2018-11-25T02:36:04.438Z,81.30
2018-11-25T02:37:04.351Z,80.50
2018-11-25T02:38:04.265Z,83.20
2018-11-25T02:39:04.176Z,88.50
2018-11-25T02:40:04.088Z,83.80
2018-11-25T02:41:04.013Z,85.10
2018-11-25T02:42:03.927Z,88.90
2018-11-25T02:43:03.838Z,81.90
2018-11-25T02:44:03.751Z,83.30
2018-11-25T02:45:03.676Z,90.40
2018-11-25T02:46:03.579Z,78.50
2018-11-25T02:47:03.502Z,84.10
2018-11-25T02:48:03.413Z,82.30
2018-11-25T02:49:03.328Z,77.90
2018-11-25T02:50:03.240Z,83.80
2018-11-25T02:51:03.160Z,88.00
2018-11-25T02:52:03.065Z,85.50
2018-11-25T02:53:02.990Z,92.30
2018-11-25T02:54:02.903Z,83.90
2018-11-25T02:55:02.815Z,83.60
2018-11-25T02:56:02.728Z,85.40
2018-11-25T02:57:02.639Z,85.80
2018-11-25T02:58:02.566Z,79.50
2018-11-25T02:59:02.479Z,76.10
2018-11-25T03:00:02.390Z,80.60
2018-11-25T03:01:02.305Z,76.60
2018-11-25T03:02:02.216Z,74.90
2018-11-25T03:03:02.130Z,77.30
2018-11-25T03:04:02.054Z,75.00
2018-11-25T03:05:01.967Z,73.70
2018-11-25T03:06:01.879Z,69.00
2018-11-25T03:07:01.791Z,70.80
2018-11-25T03:08:01.706Z,75.00
2018-11-25T03:09:01.617Z,73.60
2018-11-25T03:10:01.554Z,68.30
2018-11-25T03:11:01.456Z,71.10
2018-11-25T03:12:01.368Z,67.70
2018-11-25T03:13:01.281Z,72.70
2018-11-25T03:14:01.191Z,69.20
2018-11-25T03:15:01.117Z,71.40
2018-11-25T03:16:01.031Z,69.80
2018-11-25T03:17:00.959Z,68.60
2018-11-25T03:18:00.855Z,73.90
2018-11-25T03:19:00.767Z,72.60
2018-11-25T03:20:00.683Z,72.00
2018-11-25T03:21:00.606Z,72.50
2018-11-25T03:22:00.518Z,68.80
2018-11-25T03:23:00.431Z,68.40
2018-11-25T03:24:00.344Z,64.70
2018-11-25T03:25:00.256Z,72.30
2018-11-25T03:26:00.169Z,66.60
2018-11-25T03:27:00.106Z,69.30
2018-11-25T03:28:00.007Z,68.20
2018-11-25T03:28:59.918Z,66.30
2018-11-25T03:29:59.833Z,66.40
2018-11-25T03:30:59.745Z,64.90
2018-11-25T03:31:59.668Z,65.20
2018-11-25T03:32:59.583Z,71.40
2018-11-25T03:33:59.496Z,67.80
2018-11-25T03:34:59.407Z,65.90
2018-11-25T03:35:59.319Z,66.10
2018-11-25T03:36:59.235Z,68.20
2018-11-25T03:37:59.157Z,63.60
2018-11-25T03:38:59.076Z,68.20
2018-11-25T03:39:58.984Z,60.70
2018-11-25T03:40:58.908Z,65.50
2018-11-25T03:41:58.807Z,65.60
2018-11-25T03:42:58.733Z,65.00
2018-11-25T03:43:58.645Z,69.60
2018-11-25T03:44:58.558Z,69.60
2018-11-25T03:45:58.470Z,66.40
2018-11-25T03:46:58.383Z,64.80
2018-11-25T03:47:58.295Z,63.70
2018-11-25T03:48:58.223Z,62.00
2018-11-25T03:49:58.133Z,66.10
2018-11-25T03:50:58.049Z,61.40
2018-11-25T03:51:57.959Z,61.60
2018-11-25T03:52:57.871Z,66.10
2018-11-25T03:53:57.796Z,63.90
2018-11-25T03:54:57.710Z,63.90
2018-11-25T03:55:57.622Z,63.20
2018-11-25T03:56:57.534Z,62.80
2018-11-25T03:57:57.448Z,64.20
2018-11-25T03:58:57.360Z,69.70
2018-11-25T03:59:57.285Z,72.50
2018-11-25T04:00:57.200Z,69.40
2018-11-25T04:01:57.118Z,73.50
2018-11-25T04:02:57.023Z,69.30
2018-11-25T04:03:56.936Z,73.20
2018-11-25T04:04:56.848Z,70.40
2018-11-25T04:05:56.787Z,70.10
2018-11-25T04:06:56.690Z,67.90
2018-11-25T04:07:56.597Z,67.60
2018-11-25T04:08:56.513Z,67.40
2018-11-25T04:09:56.425Z,70.00
2018-11-25T04:10:56.348Z,70.60
2018-11-25T04:11:56.262Z,68.40
2018-11-25T04:12:56.174Z,65.00
2018-11-25T04:13:56.087Z,65.80
2018-11-25T04:14:55.998Z,67.10
2018-11-25T04:15:55.912Z,67.70
2018-11-25T04:16:55.839Z,65.20
2018-11-25T04:17:55.750Z,66.10
2018-11-25T04:18:55.661Z,65.80
2018-11-25T04:19:55.575Z,65.00
2018-11-25T04:20:55.488Z,68.40
2018-11-25T04:21:55.412Z,63.20
2018-11-25T04:22:55.324Z,65.80
2018-11-25T04:23:55.238Z,66.00
2018-11-25T04:24:55.153Z,68.80
2018-11-25T04:25:55.074Z,67.80
2018-11-25T04:26:54.975Z,65.60
2018-11-25T04:27:54.900Z,66.70
2018-11-25T04:28:54.813Z,67.40
2018-11-25T04:29:54.724Z,67.40
2018-11-25T04:30:54.638Z,69.30
2018-11-25T04:31:54.557Z,66.40
2018-11-25T04:32:54.474Z,66.70
2018-11-25T04:33:54.389Z,63.80
2018-11-25T04:34:54.301Z,61.10
2018-11-25T04:35:54.213Z,64.60
2018-11-25T04:36:54.125Z,64.00
2018-11-25T04:37:54.039Z,60.20
2018-11-25T04:38:53.965Z,64.60
2018-11-25T04:39:53.876Z,61.10
2018-11-25T04:40:53.789Z,61.80
2018-11-25T04:41:53.701Z,59.00
2018-11-25T04:42:53.614Z,62.00
2018-11-25T04:43:53.529Z,61.00
2018-11-25T04:44:53.452Z,59.00
2018-11-25T04:45:53.365Z,61.40
2018-11-25T04:46:53.277Z,61.60
2018-11-25T04:47:53.190Z,62.20
2018-11-25T04:48:53.103Z,65.00
2018-11-25T04:49:53.027Z,66.70
2018-11-25T04:50:52.941Z,62.10
2018-11-25T04:51:52.865Z,58.10
2018-11-25T04:52:52.766Z,60.50
2018-11-25T04:53:52.678Z,58.30
2018-11-25T04:54:52.602Z,60.90
2018-11-25T04:55:52.517Z,63.40
2018-11-25T04:56:52.433Z,65.10
2018-11-25T04:57:52.345Z,61.70
2018-11-25T04:58:52.253Z,58.70
2018-11-25T04:59:52.171Z,63.30
2018-11-25T05:00:52.092Z,61.90
2018-11-25T05:01:52.004Z,64.00
2018-11-25T05:02:51.921Z,59.40
2018-11-25T05:03:51.829Z,61.60
2018-11-25T05:04:51.805Z,58.70
2018-11-25T05:05:51.656Z,59.70
2018-11-25T05:06:51.593Z,62.20
2018-11-25T05:07:51.495Z,62.30
2018-11-25T05:08:51.407Z,59.40
2018-11-25T05:09:51.317Z,58.70
2018-11-25T05:10:51.230Z,58.60
2018-11-25T05:11:51.155Z,59.50
2018-11-25T05:12:51.072Z,60.30
2018-11-25T05:13:51.034Z,63.40
2018-11-25T05:14:50.893Z,62.00
2018-11-25T05:15:50.805Z,60.40
2018-11-25T05:16:50.729Z,60.20
2018-11-25T05:17:50.648Z,60.50
2018-11-25T05:18:50.559Z,61.60
2018-11-25T05:19:50.469Z,58.70
2018-11-25T05:20:50.380Z,57.20
2018-11-25T05:21:50.296Z,57.50
2018-11-25T05:22:50.220Z,58.80
2018-11-25T05:23:50.150Z,61.70
2018-11-25T05:24:50.045Z,59.30
2018-11-25T05:25:49.956Z,58.50
2018-11-25T05:26:49.871Z,61.30
2018-11-25T05:27:49.794Z,62.40
2018-11-25T05:28:49.706Z,60.50
2018-11-25T05:29:49.621Z,58.80
2018-11-25T05:30:49.532Z,59.80
2018-11-25T05:31:49.445Z,62.60
2018-11-25T05:32:49.373Z,61.50
2018-11-25T05:33:49.283Z,61.00
2018-11-25T05:34:49.196Z,60.60
2018-11-25T05:35:49.107Z,61.40
2018-11-25T05:36:49.020Z,63.20
2018-11-25T05:37:48.946Z,63.20
2018-11-25T05:38:48.857Z,60.70
2018-11-25T05:39:48.771Z,60.30
2018-11-25T05:40:48.683Z,59.80
2018-11-25T05:41:48.595Z,58.30
2018-11-25T05:42:48.533Z,56.80
2018-11-25T05:43:48.434Z,59.50
2018-11-25T05:44:48.345Z,57.90
2018-11-25T05:45:48.259Z,59.50
2018-11-25T05:46:48.173Z,56.60
2018-11-25T05:47:48.097Z,58.50
2018-11-25T05:48:48.009Z,56.80
2018-11-25T05:49:47.923Z,55.40
2018-11-25T05:50:47.836Z,55.60
2018-11-25T05:51:47.747Z,58.00
2018-11-25T05:52:47.674Z,60.30
2018-11-25T05:53:47.584Z,60.50
2018-11-25T05:54:47.498Z,57.50
2018-11-25T05:55:47.409Z,58.10
2018-11-25T05:56:47.323Z,57.50
2018-11-25T05:57:47.250Z,56.00
2018-11-25T05:58:47.160Z,56.90
2018-11-25T05:59:47.073Z,53.70
2018-11-25T06:00:46.985Z,55.10
2018-11-25T06:01:46.898Z,57.10
2018-11-25T06:02:46.823Z,57.50
2018-11-25T06:03:46.736Z,54.70
2018-11-25T06:04:46.649Z,53.90
2018-11-25T06:05:46.573Z,57.80
2018-11-25T06:06:46.474Z,53.30
2018-11-25T06:07:46.387Z,57.70
2018-11-25T06:08:46.311Z,55.80
2018-11-25T06:09:46.224Z,56.50
2018-11-25T06:10:46.140Z,57.30
2018-11-25T06:11:46.050Z,58.20
2018-11-25T06:12:45.962Z,63.20
2018-11-25T06:13:45.886Z,55.80
2018-11-25T06:14:45.799Z,58.00
2018-11-25T06:15:45.712Z,56.20
2018-11-25T06:16:45.627Z,58.20
2018-11-25T06:17:45.539Z,58.10
2018-11-25T06:18:45.462Z,59.10
2018-11-25T06:19:45.376Z,59.10
2018-11-25T06:20:45.287Z,56.60
2018-11-25T06:21:45.205Z,60.70
2018-11-25T06:22:45.125Z,59.50
2018-11-25T06:23:45.037Z,59.40
2018-11-25T06:24:44.957Z,57.90
2018-11-25T06:25:44.863Z,58.70
2018-11-25T06:26:44.776Z,60.60
2018-11-25T06:27:44.690Z,64.10
2018-11-25T06:28:44.626Z,57.90
2018-11-25T06:29:44.526Z,59.20
2018-11-25T06:30:44.438Z,58.20
2018-11-25T06:31:44.356Z,58.40
2018-11-25T06:32:44.264Z,60.60
2018-11-25T06:33:44.188Z,57.50
2018-11-25T06:34:44.109Z,57.80
2018-11-25T06:35:44.062Z,58.70
2018-11-25T06:36:43.930Z,61.40
2018-11-25T06:37:43.841Z,60.70
2018-11-25T06:38:43.764Z,61.20
2018-11-25T06:39:43.678Z,57.50
2018-11-25T06:40:43.590Z,57.80
2018-11-25T06:41:43.505Z,60.70
2018-11-25T06:42:43.418Z,59.70
2018-11-25T06:43:43.342Z,58.90
2018-11-25T06:44:43.254Z,61.10
2018-11-25T06:45:43.166Z,58.10
2018-11-25T06:46:43.079Z,60.30
2018-11-25T06:47:42.992Z,56.80
2018-11-25T06:48:42.915Z,60.90
2018-11-25T06:49:42.833Z,59.80
2018-11-25T06:50:42.754Z,63.70
2018-11-25T06:51:42.654Z,58.10
2018-11-25T06:52:42.566Z,56.50
2018-11-25T06:53:42.491Z,60.70
2018-11-25T06:54:42.405Z,61.90
2018-11-25T06:55:42.318Z,58.50
2018-11-25T06:56:42.229Z,57.30
2018-11-25T06:57:42.143Z,58.40
2018-11-25T06:58:42.067Z,57.90
2018-11-25T06:59:41.980Z,59.30
2018-11-25T07:00:41.892Z,59.80
2018-11-25T07:01:41.805Z,59.20
2018-11-25T07:02:41.717Z,59.50
2018-11-25T07:03:41.642Z,58.30
2018-11-25T07:04:41.555Z,61.80
2018-11-25T07:05:41.468Z,56.10
2018-11-25T07:06:41.381Z,65.00
2018-11-25T07:07:41.292Z,62.80
2018-11-25T07:08:41.219Z,62.50
2018-11-25T07:09:41.130Z,61.10
2018-11-25T07:10:41.056Z,56.90
2018-11-25T07:11:40.956Z,60.50
2018-11-25T07:12:40.868Z,56.90
2018-11-25T07:13:40.795Z,61.50
2018-11-25T07:14:40.710Z,60.80
2018-11-25T07:15:40.618Z,57.60
2018-11-25T07:16:40.533Z,58.90
2018-11-25T07:17:40.444Z,61.40
2018-11-25T07:18:40.368Z,57.00
2018-11-25T07:19:40.282Z,54.20
2018-11-25T07:20:40.194Z,57.80
2018-11-25T07:21:40.119Z,55.80
2018-11-25T07:22:40.020Z,56.50
2018-11-25T07:23:39.957Z,58.10
2018-11-25T07:24:39.857Z,55.30
2018-11-25T07:25:39.770Z,55.40
2018-11-25T07:26:39.682Z,56.30
2018-11-25T07:27:39.595Z,57.00
2018-11-25T07:28:39.520Z,54.30
2018-11-25T07:29:39.433Z,50.20
2018-11-25T07:30:39.359Z,51.80
2018-11-25T07:31:39.260Z,50.80
2018-11-25T07:32:39.170Z,54.30
2018-11-25T07:33:39.102Z,54.10
2018-11-25T07:34:39.009Z,52.70
2018-11-25T07:35:38.920Z,55.70
2018-11-25T07:36:38.834Z,54.30
2018-11-25T07:37:38.759Z,52.40
2018-11-25T07:38:38.680Z,53.40
2018-11-25T07:39:38.584Z,52.20
2018-11-25T07:40:38.497Z,55.50
2018-11-25T07:41:38.421Z,50.60
2018-11-25T07:42:38.334Z,53.20
2018-11-25T07:43:38.260Z,52.00
2018-11-25T07:44:38.159Z,51.60
2018-11-25T07:45:38.072Z,49.90
2018-11-25T07:46:37.985Z,49.20
2018-11-25T07:47:37.917Z,54.30
2018-11-25T07:48:37.823Z,51.00
2018-11-25T07:49:37.736Z,50.70
2018-11-25T07:50:37.660Z,50.90
2018-11-25T07:51:37.561Z,55.60
2018-11-25T07:52:37.485Z,52.90
2018-11-25T07:53:37.399Z,51.50
2018-11-25T07:54:37.311Z,51.40
2018-11-25T07:55:37.223Z,52.40
2018-11-25T07:56:37.147Z,54.60
2018-11-25T07:57:37.062Z,52.50
2018-11-25T07:58:36.973Z,54.10
2018-11-25T07:59:36.887Z,57.60
2018-11-25T08:00:36.799Z,52.90
2018-11-25T08:01:36.724Z,53.70
2018-11-25T08:02:41.426Z,51.30
2018-11-25T08:03:36.549Z,52.50
2018-11-25T08:04:36.464Z,53.80
2018-11-25T08:05:36.389Z,53.60
2018-11-25T08:06:36.298Z,55.10
2018-11-25T08:07:36.212Z,50.40
2018-11-25T08:08:36.125Z,50.80
2018-11-25T08:09:36.038Z,51.00
2018-11-25T08:10:35.963Z,50.50
2018-11-25T08:11:35.875Z,50.70
2018-11-25T08:12:35.787Z,51.00
2018-11-25T08:13:35.701Z,50.50
2018-11-25T08:14:35.625Z,53.80
2018-11-25T08:15:35.540Z,54.60
2018-11-25T08:16:35.450Z,54.70
2018-11-25T08:17:35.365Z,52.30
2018-11-25T08:18:35.288Z,53.30
2018-11-25T08:19:35.200Z,51.00
2018-11-25T08:20:35.115Z,50.80
2018-11-25T08:21:35.038Z,50.30
2018-11-25T08:22:34.950Z,51.90
2018-11-25T08:23:34.864Z,51.80
2018-11-25T08:24:34.776Z,49.10
2018-11-25T08:25:34.691Z,50.10
2018-11-25T08:26:34.614Z,49.30
2018-11-25T08:27:34.527Z,50.70
2018-11-25T08:28:34.441Z,50.20
2018-11-25T08:29:34.352Z,50.30
2018-11-25T08:30:34.278Z,51.00
2018-11-25T08:31:34.193Z,49.70
2018-11-25T08:32:34.102Z,51.80
2018-11-25T08:33:34.016Z,48.90
2018-11-25T08:34:33.941Z,50.80
2018-11-25T08:35:33.852Z,51.80
2018-11-25T08:36:33.768Z,50.10
2018-11-25T08:37:33.680Z,49.00
2018-11-25T08:38:33.602Z,50.10
2018-11-25T08:39:33.516Z,48.80
2018-11-25T08:40:33.441Z,49.40
2018-11-25T08:41:33.342Z,50.30
2018-11-25T08:42:33.270Z,47.90
2018-11-25T08:43:33.182Z,45.70
2018-11-25T08:44:33.091Z,51.40
2018-11-25T08:45:33.007Z,47.80
2018-11-25T08:46:32.942Z,45.80
2018-11-25T08:47:32.843Z,47.50
2018-11-25T08:48:32.753Z,49.70
2018-11-25T08:49:32.679Z,48.90
2018-11-25T08:50:32.592Z,48.80
2018-11-25T08:51:32.504Z,44.90
2018-11-25T08:52:32.420Z,48.40
2018-11-25T08:53:32.343Z,45.00
2018-11-25T08:54:32.255Z,44.60
2018-11-25T08:55:32.172Z,47.00
2018-11-25T08:56:32.079Z,48.90
2018-11-25T08:57:32.005Z,45.70
2018-11-25T08:58:31.919Z,45.70
2018-11-25T08:59:31.844Z,47.30
2018-11-25T09:00:31.745Z,48.90
2018-11-25T09:01:31.675Z,49.90
2018-11-25T09:02:31.581Z,51.00
2018-11-25T09:03:31.496Z,51.40
2018-11-25T09:04:31.408Z,51.70
2018-11-25T09:05:31.331Z,50.30
2018-11-25T09:06:31.246Z,63.20
2018-11-25T09:07:31.157Z,51.40
2018-11-25T09:08:31.082Z,58.40
2018-11-25T09:09:30.999Z,52.70
2018-11-25T09:10:30.906Z,60.10
2018-11-25T09:11:30.820Z,54.30
2018-11-25T09:12:30.748Z,52.90
2018-11-25T09:13:30.705Z,47.00
2018-11-25T09:14:30.570Z,49.60
2018-11-25T09:15:30.482Z,49.30
2018-11-25T09:16:30.406Z,49.60
2018-11-25T09:17:30.323Z,49.40
2018-11-25T09:18:30.234Z,48.70
2018-11-25T09:19:30.145Z,47.50
2018-11-25T09:20:30.071Z,51.20
2018-11-25T09:21:29.983Z,53.10
2018-11-25T09:22:29.896Z,51.00
2018-11-25T09:23:29.824Z,48.90
2018-11-25T09:24:29.745Z,49.00
2018-11-25T09:25:29.645Z,49.40
2018-11-25T09:26:29.559Z,51.20
2018-11-25T09:27:29.484Z,48.50
2018-11-25T09:28:29.396Z,51.60
2018-11-25T09:29:29.308Z,51.70
2018-11-25T09:30:29.236Z,55.60
2018-11-25T09:31:29.156Z,49.20
2018-11-25T09:32:29.059Z,52.70
2018-11-25T09:33:28.973Z,52.70
2018-11-25T09:34:28.901Z,51.80
2018-11-25T09:35:28.811Z,50.00
2018-11-25T09:36:28.722Z,50.30
2018-11-25T09:37:28.647Z,51.70
2018-11-25T09:38:28.561Z,55.20
2018-11-25T09:39:28.475Z,55.70
2018-11-25T09:40:28.390Z,55.80
2018-11-25T09:41:28.309Z,58.40
2018-11-25T09:42:28.223Z,56.90
2018-11-25T09:43:28.140Z,57.40
2018-11-25T09:44:28.074Z,61.20
2018-11-25T09:45:27.973Z,56.00
2018-11-25T09:46:27.885Z,57.40
2018-11-25T09:47:27.798Z,58.20
2018-11-25T09:48:27.727Z,60.00
2018-11-25T09:49:27.635Z,57.90
2018-11-25T09:50:27.552Z,56.70
2018-11-25T09:51:27.474Z,59.90
2018-11-25T09:52:27.387Z,56.50
2018-11-25T09:53:27.299Z,57.40
2018-11-25T09:54:27.224Z,57.20
2018-11-25T09:55:27.138Z,54.30
2018-11-25T09:56:27.055Z,56.20
2018-11-25T09:57:26.962Z,55.50
2018-11-25T09:58:26.887Z,56.60
2018-11-25T09:59:26.800Z,54.40
2018-11-25T10:00:26.725Z,52.10
2018-11-25T10:01:26.625Z,52.60
2018-11-25T10:02:26.551Z,48.60
2018-11-25T10:03:26.465Z,48.50
2018-11-25T10:04:26.376Z,52.90
2018-11-25T10:05:26.304Z,51.00
2018-11-25T10:06:26.213Z,52.80
2018-11-25T10:07:26.128Z,52.90
2018-11-25T10:08:26.052Z,55.20
2018-11-25T10:09:25.962Z,52.80
2018-11-25T10:10:25.884Z,49.20
2018-11-25T10:11:25.789Z,54.60
2018-11-25T10:12:25.713Z,51.80
2018-11-25T10:13:25.630Z,48.60
2018-11-25T10:14:25.538Z,48.50
2018-11-25T10:15:25.466Z,52.20
2018-11-25T10:16:25.376Z,50.50
2018-11-25T10:17:25.289Z,50.00
2018-11-25T10:18:25.214Z,49.50
2018-11-25T10:19:25.127Z,48.40
2018-11-25T10:20:25.042Z,52.20
2018-11-25T10:21:24.963Z,52.30
2018-11-25T10:22:24.878Z,50.60
2018-11-25T10:23:24.789Z,51.00
2018-11-25T10:24:24.702Z,49.90
2018-11-25T10:25:24.628Z,51.50
2018-11-25T10:26:24.541Z,51.80
2018-11-25T10:27:24.453Z,52.80
2018-11-25T10:28:24.379Z,49.80
2018-11-25T10:29:24.291Z,49.60
2018-11-25T10:30:24.207Z,52.70
2018-11-25T10:31:24.129Z,51.50
2018-11-25T10:32:24.040Z,51.70
2018-11-25T10:33:23.955Z,54.30
2018-11-25T10:34:23.879Z,54.10
2018-11-25T10:35:23.799Z,54.50
2018-11-25T10:36:23.704Z,54.80
2018-11-25T10:37:23.629Z,57.30
2018-11-25T10:38:23.541Z,57.80
2018-11-25T10:39:23.456Z,56.70
2018-11-25T10:40:23.379Z,62.80
2018-11-25T10:41:23.294Z,62.20
2018-11-25T10:42:23.208Z,62.40
2018-11-25T10:43:23.129Z,62.90
2018-11-25T10:44:23.047Z,61.00
2018-11-25T10:45:22.958Z,62.40
2018-11-25T10:46:22.880Z,67.80
2018-11-25T10:47:22.792Z,62.90
2018-11-25T10:48:22.705Z,67.50
2018-11-25T10:49:22.633Z,68.40
2018-11-25T10:50:22.542Z,69.60
2018-11-25T10:51:22.458Z,70.70
2018-11-25T10:52:22.369Z,69.00
2018-11-25T10:53:22.292Z,63.60
2018-11-25T10:54:22.207Z,66.60
2018-11-25T10:55:22.131Z,69.70
2018-11-25T10:56:22.043Z,63.70
2018-11-25T10:57:21.961Z,68.70
2018-11-25T10:58:21.869Z,69.60
2018-11-25T10:59:21.793Z,65.00
2018-11-25T11:00:21.706Z,66.90
2018-11-25T11:01:21.644Z,72.20
2018-11-25T11:02:21.544Z,65.80
2018-11-25T11:03:21.459Z,66.90
2018-11-25T11:04:21.369Z,67.10
2018-11-25T11:05:21.294Z,61.60
2018-11-25T11:06:21.208Z,67.60
2018-11-25T11:07:21.133Z,68.70
2018-11-25T11:08:21.044Z,69.20
2018-11-25T11:09:20.963Z,68.90
2018-11-25T11:10:20.870Z,64.90
2018-11-25T11:11:20.795Z,65.10
2018-11-25T11:12:20.712Z,61.30
2018-11-25T11:13:20.633Z,61.60
2018-11-25T11:14:20.545Z,63.50
2018-11-25T11:15:20.463Z,62.00
2018-11-25T11:16:20.370Z,60.50
2018-11-25T11:17:20.283Z,62.80
2018-11-25T11:18:20.211Z,61.40
2018-11-25T11:19:20.134Z,65.60
2018-11-25T11:20:20.034Z,67.80
2018-11-25T11:21:19.972Z,62.50
2018-11-25T11:22:19.871Z,64.90
2018-11-25T11:23:19.785Z,62.80
2018-11-25T11:24:19.711Z,68.40
2018-11-25T11:25:19.621Z,64.40
2018-11-25T11:26:19.537Z,61.90
2018-11-25T11:27:19.463Z,61.10
2018-11-25T11:28:19.371Z,62.90
2018-11-25T11:29:19.285Z,59.50
2018-11-25T11:30:19.210Z,62.80
2018-11-25T11:31:19.125Z,62.10
2018-11-25T11:32:19.035Z,63.10
2018-11-25T11:33:18.949Z,62.50
2018-11-25T11:34:18.876Z,60.20
2018-11-25T11:35:18.792Z,63.80
2018-11-25T11:36:18.697Z,63.90
2018-11-25T11:37:18.622Z,62.80
2018-11-25T11:38:18.536Z,60.20
2018-11-25T11:39:18.452Z,65.20
2018-11-25T11:40:18.374Z,62.10
2018-11-25T11:41:18.287Z,58.30
2018-11-25T11:42:18.199Z,58.80
2018-11-25T11:43:18.122Z,61.80
2018-11-25T11:44:18.037Z,60.90
2018-11-25T11:45:17.948Z,64.80
2018-11-25T11:46:17.874Z,65.50
2018-11-25T11:47:17.786Z,62.40
2018-11-25T11:48:17.698Z,62.60
2018-11-25T11:49:17.612Z,62.00
2018-11-25T11:50:17.539Z,57.70
2018-11-25T11:51:17.461Z,61.40
2018-11-25T11:52:17.362Z,62.00
2018-11-25T11:53:17.288Z,57.60
2018-11-25T11:54:17.199Z,58.50
2018-11-25T11:55:17.112Z,62.00
2018-11-25T11:56:17.038Z,63.10
2018-11-25T11:57:16.950Z,60.30
2018-11-25T11:58:16.867Z,58.80
2018-11-25T11:59:16.775Z,62.10
2018-11-25T12:00:16.703Z,59.40
2018-11-25T12:01:16.613Z,60.70
2018-11-25T12:02:16.527Z,59.70
2018-11-25T12:03:16.450Z,59.20
2018-11-25T12:04:16.365Z,60.10
2018-11-25T12:05:16.279Z,59.10
2018-11-25T12:06:16.201Z,60.50
2018-11-25T12:07:16.114Z,61.10
2018-11-25T12:08:16.027Z,66.10
2018-11-25T12:09:15.940Z,62.50
2018-11-25T12:10:15.865Z,65.40
2018-11-25T12:11:15.776Z,61.30
2018-11-25T12:12:15.689Z,61.70
2018-11-25T12:13:15.614Z,63.80
2018-11-25T12:14:15.527Z,63.80
2018-11-25T12:15:15.444Z,65.60
2018-11-25T12:16:15.368Z,64.40
2018-11-25T12:17:15.277Z,67.50
2018-11-25T12:18:15.190Z,65.10
2018-11-25T12:19:15.102Z,68.10
2018-11-25T12:20:15.029Z,69.50
2018-11-25T12:21:14.941Z,68.90
2018-11-25T12:22:14.854Z,70.90
2018-11-25T12:23:14.777Z,68.70
2018-11-25T12:24:14.691Z,69.00
2018-11-25T12:25:14.603Z,72.20
2018-11-25T12:26:14.516Z,65.70
2018-11-25T12:27:14.442Z,73.50
2018-11-25T12:28:14.353Z,66.80
2018-11-25T12:29:14.270Z,69.60
2018-11-25T12:30:14.194Z,74.60
2018-11-25T12:31:14.104Z,75.30
2018-11-25T12:32:14.018Z,73.40
2018-11-25T12:33:13.929Z,74.20
2018-11-25T12:34:13.853Z,73.60
2018-11-25T12:35:13.768Z,74.20
2018-11-25T12:36:13.679Z,76.80
2018-11-25T12:37:13.617Z,84.40
2018-11-25T12:38:13.518Z,80.60
2018-11-25T12:39:13.430Z,78.30
2018-11-25T12:40:13.349Z,76.80
2018-11-25T12:41:13.269Z,77.40
2018-11-25T12:42:13.180Z,75.30
2018-11-25T12:43:13.100Z,77.90
2018-11-25T12:44:13.018Z,76.90
2018-11-25T12:45:12.931Z,71.50
2018-11-25T12:46:12.844Z,69.20
2018-11-25T12:47:12.756Z,72.70
2018-11-25T12:48:12.680Z,72.50
2018-11-25T12:49:12.594Z,71.20
2018-11-25T12:50:12.506Z,78.30
2018-11-25T12:51:12.430Z,68.80